createdAt,value
2023-05-15T00:01:06.715Z,97978.28
2023-05-15T00:03:51.898Z,97950.59
2023-05-15T00:06:37.853Z,97980.25
2023-05-15T00:09:23.790Z,97979.03
2023-05-15T00:12:09.360Z,97975.22
2023-05-15T00:14:54.997Z,97974.44
2023-05-15T00:17:40.457Z,97950.59
2023-05-15T00:20:25.930Z,97969.09
2023-05-15T00:23:11.216Z,97969.91
2023-05-15T00:25:56.549Z,97964.59
2023-05-15T00:28:41.816Z,97917.91
2023-05-15T00:31:27.166Z,97955.09
2023-05-15T00:34:12.413Z,97961.88
2023-05-15T00:36:57.811Z,97881.22
2023-05-15T00:39:43.228Z,97941.34
2023-05-15T00:42:29.336Z,97948.84
2023-05-15T00:45:16.474Z,97939.28
2023-05-15T00:48:01.797Z,97937.66
2023-05-15T00:50:47.509Z,97941.31
2023-05-15T00:53:33.775Z,97941.75
2023-05-15T00:56:20.057Z,97930.38
2023-05-15T00:59:06.522Z,97936.50
2023-05-15T01:01:52.077Z,97943.84
2023-05-15T01:04:37.382Z,97940.22
2023-05-15T01:07:22.630Z,97936.75
2023-05-15T01:10:08.890Z,97930.84
2023-05-15T01:12:55.557Z,97882.47
2023-05-15T01:15:41.411Z,97925.97
2023-05-15T01:18:26.819Z,97933.91
2023-05-15T01:21:34.818Z,97943.84
2023-05-15T01:24:47.411Z,97935.31
2023-05-15T01:27:39.666Z,97932.25
2023-05-15T01:30:30.526Z,97930.63
2023-05-15T01:33:24.625Z,97928.41
2023-05-15T01:36:15.335Z,97925.53
2023-05-15T01:39:03.400Z,97923.44
2023-05-15T01:42:02.681Z,97931.97
2023-05-15T01:44:54.733Z,97928.13
2023-05-15T01:47:44.943Z,97927.97
2023-05-15T01:50:32.711Z,97928.97
2023-05-15T01:53:20.130Z,97928.81
2023-05-15T01:56:07.359Z,97923.91
2023-05-15T01:58:55.462Z,97923.50
2023-05-15T02:01:42.092Z,97894.63
2023-05-15T02:04:27.818Z,97920.41
2023-05-15T02:07:14.840Z,97935.47
2023-05-15T02:10:00.166Z,97924.25
2023-05-15T02:12:46.744Z,97871.56
2023-05-15T02:15:32.725Z,97916.13
2023-05-15T02:18:18.501Z,97918.94
2023-05-15T02:21:03.934Z,97916.69
2023-05-15T02:23:49.570Z,97917.91
2023-05-15T02:26:40.809Z,97912.13
2023-05-15T02:29:31.982Z,97911.13
2023-05-15T02:32:33.544Z,97908.94
2023-05-15T02:35:34.008Z,97898.94
2023-05-15T02:38:28.258Z,97893.63
2023-05-15T02:41:15.126Z,97893.00
2023-05-15T02:44:01.241Z,97892.78
2023-05-15T02:46:48.170Z,97896.84
2023-05-15T02:49:33.860Z,97872.03
2023-05-15T02:52:19.408Z,97893.56
2023-05-15T02:55:05.193Z,97894.75
2023-05-15T02:57:50.359Z,97897.34
2023-05-15T03:00:35.510Z,97894.06
2023-05-15T03:03:21.105Z,97890.25
2023-05-15T03:06:06.737Z,97894.25
2023-05-15T03:08:52.366Z,97869.44
2023-05-15T03:11:37.467Z,97880.66
2023-05-15T03:14:23.140Z,97878.34
2023-05-15T03:17:08.971Z,97878.34
2023-05-15T03:19:54.536Z,97876.00
2023-05-15T03:22:39.955Z,97872.47
2023-05-15T03:25:26.519Z,97829.16
2023-05-15T03:28:12.141Z,97876.44
2023-05-15T03:30:57.543Z,97876.31
2023-05-15T03:33:42.626Z,97872.69
2023-05-15T03:36:28.222Z,97870.78
2023-05-15T03:39:13.630Z,97867.31
2023-05-15T03:41:59.055Z,97863.50
2023-05-15T03:44:44.308Z,97868.38
2023-05-15T03:47:31.854Z,97869.53
2023-05-15T03:50:17.060Z,97870.28
2023-05-15T03:53:02.679Z,97868.69
2023-05-15T03:55:48.196Z,97872.53
2023-05-15T03:58:33.574Z,97878.28
2023-05-15T04:01:18.707Z,97877.09
2023-05-15T04:04:04.399Z,97868.34
2023-05-15T04:06:50.766Z,97822.84
2023-05-15T04:09:35.821Z,97863.13
2023-05-15T04:12:21.363Z,97857.75
2023-05-15T04:15:17.144Z,97863.63
2023-05-15T04:18:02.290Z,97872.00
2023-05-15T04:20:47.806Z,97869.19
2023-05-15T04:23:33.147Z,97866.41
2023-05-15T04:26:18.394Z,97863.78
2023-05-15T04:29:04.777Z,97864.03
2023-05-15T04:31:50.098Z,97864.75
2023-05-15T04:34:35.725Z,97865.28
2023-05-15T04:37:21.380Z,97851.09
2023-05-15T04:40:07.403Z,97868.09
2023-05-15T04:42:53.112Z,97861.56
2023-05-15T04:45:38.359Z,97865.28
2023-05-15T04:48:23.746Z,97869.84
2023-05-15T04:51:09.048Z,97866.25
2023-05-15T04:53:54.601Z,97864.34
2023-05-15T04:56:39.815Z,97866.41
2023-05-15T04:59:25.418Z,97851.03
2023-05-15T05:02:10.853Z,97868.78
2023-05-15T05:04:56.348Z,97865.19
2023-05-15T05:07:41.421Z,97862.13
2023-05-15T05:10:27.192Z,97853.19
2023-05-15T05:13:12.568Z,97860.91
2023-05-15T05:15:58.451Z,97857.25
2023-05-15T05:18:43.523Z,97771.28
2023-05-15T05:21:29.060Z,97852.81
2023-05-15T05:24:14.606Z,97852.81
2023-05-15T05:26:59.903Z,97838.13
2023-05-15T05:29:45.176Z,97859.06
2023-05-15T05:32:30.625Z,97854.63
2023-05-15T05:35:15.878Z,97843.28
2023-05-15T05:38:01.237Z,97765.84
2023-05-15T05:40:46.686Z,97849.56
2023-05-15T05:43:32.322Z,97849.50
2023-05-15T05:46:17.738Z,97849.16
2023-05-15T05:49:03.014Z,97847.31
2023-05-15T05:51:48.085Z,97830.69
2023-05-15T05:54:33.753Z,97849.97
2023-05-15T05:57:19.358Z,97848.97
2023-05-15T06:00:05.538Z,97849.97
2023-05-15T06:02:58.227Z,97852.00
2023-05-15T06:05:44.384Z,97848.34
2023-05-15T06:08:29.896Z,97841.03
2023-05-15T06:11:15.142Z,97844.47
2023-05-15T06:14:00.247Z,97840.16
2023-05-15T06:16:45.666Z,97843.03
2023-05-15T06:19:31.089Z,97842.38
2023-05-15T06:22:16.458Z,97841.59
2023-05-15T06:25:02.399Z,97849.13
2023-05-15T06:27:47.604Z,97850.31
2023-05-15T06:30:33.078Z,97835.63
2023-05-15T06:33:18.335Z,97840.91
2023-05-15T06:36:03.971Z,97845.03
2023-05-15T06:38:49.419Z,97842.41
2023-05-15T06:41:34.623Z,97845.03
2023-05-15T06:44:19.786Z,97852.59
2023-05-15T06:47:05.502Z,97851.56
2023-05-15T06:49:50.972Z,97853.31
2023-05-15T06:52:36.465Z,97846.69
2023-05-15T06:55:21.878Z,97846.84
2023-05-15T06:58:07.211Z,97848.44
2023-05-15T07:00:54.138Z,97838.34
2023-05-15T07:03:40.817Z,97823.72
2023-05-15T07:06:26.447Z,97832.13
2023-05-15T07:09:12.941Z,97836.41
2023-05-15T07:11:58.297Z,97833.06
2023-05-15T07:14:43.788Z,97829.97
2023-05-15T07:17:31.586Z,97836.22
2023-05-15T07:20:17.023Z,97830.72
2023-05-15T07:23:02.845Z,97825.22
2023-05-15T07:25:48.343Z,97832.47
2023-05-15T07:28:33.733Z,97827.47
2023-05-15T07:31:20.256Z,97826.88
2023-05-15T07:34:05.839Z,97823.84
2023-05-15T07:36:51.350Z,97822.16
2023-05-15T07:39:36.776Z,97822.50
2023-05-15T07:42:22.061Z,97749.22
2023-05-15T07:45:08.327Z,97818.16
2023-05-15T07:47:53.357Z,97811.47
2023-05-15T07:50:38.431Z,97804.06
2023-05-15T07:53:23.866Z,97807.41
2023-05-15T07:56:10.092Z,97769.84
2023-05-15T07:58:55.588Z,97807.44
2023-05-15T08:01:40.667Z,97807.44
2023-05-15T08:04:26.146Z,97803.88
2023-05-15T08:07:12.951Z,97806.69
2023-05-15T08:09:58.220Z,97801.16
2023-05-15T08:12:43.582Z,97801.47
2023-05-15T08:15:28.742Z,97798.13
2023-05-15T08:18:14.275Z,97790.66
2023-05-15T08:20:59.370Z,97796.41
2023-05-15T08:23:44.850Z,97792.28
2023-05-15T08:26:30.496Z,97792.88
2023-05-15T08:29:15.841Z,97784.25
2023-05-15T08:32:01.304Z,97792.69
2023-05-15T08:34:46.678Z,97791.91
2023-05-15T08:37:31.917Z,97719.88
2023-05-15T08:40:19.788Z,97779.66
2023-05-15T08:43:13.212Z,97772.56
2023-05-15T08:45:59.828Z,97775.09
2023-05-15T08:48:45.616Z,97764.91
2023-05-15T08:51:31.871Z,97762.09
2023-05-15T08:54:18.194Z,97758.59
2023-05-15T08:57:04.530Z,97761.78
2023-05-15T08:59:51.500Z,97763.56
2023-05-15T09:02:37.456Z,97763.16
2023-05-15T09:05:22.967Z,97757.28
2023-05-15T09:08:08.759Z,97761.66
2023-05-15T09:10:56.482Z,97764.13
2023-05-15T09:13:41.664Z,97759.03
2023-05-15T09:16:28.022Z,97764.38
2023-05-15T09:19:15.367Z,97758.47
2023-05-15T09:22:20.525Z,97732.91
2023-05-15T09:25:06.053Z,97759.16
2023-05-15T09:27:51.512Z,97725.94
2023-05-15T09:30:42.556Z,97755.28
2023-05-15T09:33:29.950Z,97750.38
2023-05-15T09:36:21.698Z,97740.69
2023-05-15T09:39:09.007Z,97765.38
2023-05-15T09:41:54.441Z,97765.81
2023-05-15T09:44:44.316Z,97759.53
2023-05-15T09:47:30.019Z,97700.19
2023-05-15T09:50:21.168Z,97743.69
2023-05-15T09:53:06.713Z,97762.56
2023-05-15T09:55:53.148Z,97757.47
2023-05-15T09:58:38.520Z,97756.72
2023-05-15T10:01:24.845Z,97755.75
2023-05-15T10:04:10.526Z,97757.50
2023-05-15T10:06:55.989Z,97747.06
2023-05-15T10:09:41.211Z,97744.19
2023-05-15T10:12:28.589Z,97750.44
2023-05-15T10:15:14.906Z,97746.72
2023-05-15T10:18:00.571Z,97756.13
2023-05-15T10:20:46.264Z,97744.91
2023-05-15T10:23:33.096Z,97750.00
2023-05-15T10:26:35.201Z,97748.34
2023-05-15T10:29:22.161Z,97743.59
2023-05-15T10:32:08.465Z,97736.88
2023-05-15T10:34:54.545Z,97732.84
2023-05-15T10:37:40.305Z,97730.22
2023-05-15T10:40:26.897Z,97734.25
2023-05-15T10:43:14.005Z,97728.38
2023-05-15T10:45:59.624Z,97707.59
2023-05-15T10:48:45.347Z,97730.09
2023-05-15T10:51:32.807Z,97717.41
2023-05-15T10:54:18.134Z,97721.34
2023-05-15T10:57:04.634Z,97721.25
2023-05-15T10:59:50.529Z,97714.72
2023-05-15T11:02:39.001Z,97673.97
2023-05-15T11:05:25.471Z,97703.75
2023-05-15T11:08:16.806Z,97704.28
2023-05-15T11:11:02.098Z,97695.47
2023-05-15T11:14:05.347Z,97698.34
2023-05-15T11:16:54.067Z,97697.31
2023-05-15T11:19:51.677Z,97695.41
2023-05-15T11:22:37.333Z,97689.50
2023-05-15T11:25:29.586Z,97693.34
2023-05-15T11:28:25.314Z,97690.91
2023-05-15T11:31:10.857Z,97688.66
2023-05-15T11:33:56.195Z,97684.91
2023-05-15T11:36:42.420Z,97678.38
2023-05-15T11:39:28.519Z,97680.84
2023-05-15T11:42:14.194Z,97679.19
2023-05-15T11:44:59.805Z,97680.31
2023-05-15T11:47:45.397Z,97679.25
2023-05-15T11:50:32.260Z,97684.53
2023-05-15T11:53:18.350Z,97688.66
2023-05-15T11:56:03.911Z,97693.25
2023-05-15T11:58:51.020Z,97696.78
2023-05-15T12:01:43.715Z,97681.88
2023-05-15T12:04:29.383Z,97693.88
2023-05-15T12:07:14.613Z,97697.88
2023-05-15T12:10:00.826Z,97693.38
2023-05-15T12:12:46.484Z,97702.31
2023-05-15T12:15:31.756Z,97701.88
2023-05-15T12:18:17.262Z,97707.84
2023-05-15T12:21:02.877Z,97712.50
2023-05-15T12:23:59.855Z,97628.41
2023-05-15T12:26:52.434Z,97717.94
2023-05-15T12:29:39.090Z,97686.00
2023-05-15T12:32:24.902Z,97715.94
2023-05-15T12:35:10.959Z,97716.16
2023-05-15T12:37:56.176Z,97689.28
2023-05-15T12:40:43.296Z,97712.66
2023-05-15T12:43:31.361Z,97721.84
2023-05-15T12:46:22.769Z,97719.13
2023-05-15T12:49:08.418Z,97711.03
2023-05-15T12:51:53.853Z,97711.22
2023-05-15T12:54:43.523Z,97717.41
2023-05-15T12:57:28.954Z,97709.38
2023-05-15T13:00:15.228Z,97701.91
2023-05-15T13:03:01.729Z,97665.56
2023-05-15T13:05:47.471Z,97703.88
2023-05-15T13:08:32.857Z,97703.00
2023-05-15T13:11:18.464Z,97700.59
2023-05-15T13:14:09.490Z,97704.84
2023-05-15T13:16:54.651Z,97698.44
2023-05-15T13:19:39.817Z,97702.69
2023-05-15T13:22:25.772Z,97697.28
2023-05-15T13:25:12.567Z,97688.53
2023-05-15T13:27:59.436Z,97682.56
2023-05-15T13:30:44.832Z,97672.22
2023-05-15T13:33:30.378Z,97681.41
2023-05-15T13:36:15.774Z,97694.41
2023-05-15T13:39:01.069Z,97685.31
2023-05-15T13:41:46.575Z,97635.41
2023-05-15T13:44:32.093Z,97681.06
2023-05-15T13:47:17.214Z,97678.19
2023-05-15T13:50:03.234Z,97666.44
2023-05-15T13:52:48.914Z,97672.44
2023-05-15T13:55:34.204Z,97672.19
2023-05-15T13:58:19.634Z,97673.69
2023-05-15T14:01:05.737Z,97658.81
2023-05-15T14:03:51.383Z,97657.75
2023-05-15T14:06:36.541Z,97654.03
2023-05-15T14:09:21.833Z,97653.75
2023-05-15T14:12:07.147Z,97659.13
2023-05-15T14:14:52.698Z,97655.09
2023-05-15T14:17:38.322Z,97653.53
2023-05-15T14:20:23.807Z,97655.63
2023-05-15T14:23:09.007Z,97583.56
2023-05-15T14:25:54.672Z,97646.53
2023-05-15T14:28:39.741Z,97655.38
2023-05-15T14:31:25.392Z,97656.41
2023-05-15T14:34:10.580Z,97662.06
2023-05-15T14:36:55.615Z,97667.38
2023-05-15T14:39:40.858Z,97656.19
2023-05-15T14:42:26.208Z,97634.16
2023-05-15T14:45:11.757Z,97651.22
2023-05-15T14:47:56.990Z,97652.78
2023-05-15T14:50:42.098Z,97649.25
2023-05-15T14:53:27.982Z,97600.03
2023-05-15T14:56:13.480Z,97662.66
2023-05-15T14:58:58.906Z,97669.03
2023-05-15T15:01:44.039Z,97680.59
2023-05-15T15:04:31.228Z,97668.84
2023-05-15T15:07:16.640Z,97673.22
2023-05-15T15:10:01.753Z,97677.13
2023-05-15T15:12:47.028Z,97666.06
2023-05-15T15:15:33.998Z,97666.75
2023-05-15T15:18:22.144Z,97659.97
2023-05-15T15:21:07.188Z,97662.66
2023-05-15T15:23:52.425Z,97670.31
2023-05-15T15:26:38.301Z,97663.09
2023-05-15T15:29:23.957Z,97643.59
2023-05-15T15:32:09.198Z,97668.34
2023-05-15T15:34:56.069Z,97601.09
2023-05-15T15:37:41.486Z,97661.63
2023-05-15T15:40:27.315Z,97663.75
2023-05-15T15:43:13.438Z,97662.00
2023-05-15T15:45:59.037Z,97663.22
2023-05-15T15:48:45.267Z,97660.06
2023-05-15T15:51:30.723Z,97645.34
2023-05-15T15:54:16.440Z,97663.94
2023-05-15T15:57:02.957Z,97674.16
2023-05-15T15:59:48.406Z,97670.44
2023-05-15T16:02:34.163Z,97650.09
2023-05-15T16:05:19.474Z,97684.84
2023-05-15T16:08:06.109Z,97686.97
2023-05-15T16:10:53.928Z,97693.50
2023-05-15T16:13:40.947Z,97698.84
2023-05-15T16:16:26.569Z,97640.28
2023-05-15T16:19:12.883Z,97704.16
2023-05-15T16:21:58.262Z,97696.56
2023-05-15T16:24:43.657Z,97701.34
2023-05-15T16:27:29.397Z,97697.00
2023-05-15T16:30:14.731Z,97706.44
2023-05-15T16:33:00.338Z,97706.38
2023-05-15T16:35:46.488Z,97682.19
2023-05-15T16:38:31.987Z,97712.53
2023-05-15T16:41:17.985Z,97716.50
2023-05-15T16:44:03.351Z,97718.59
2023-05-15T16:46:49.059Z,97720.44
2023-05-15T16:49:34.387Z,97685.75
2023-05-15T16:52:19.544Z,97732.31
2023-05-15T16:55:05.730Z,97728.16
2023-05-15T16:57:50.992Z,97731.53
2023-05-15T17:00:36.189Z,97732.78
2023-05-15T17:03:21.830Z,97740.84
2023-05-15T17:06:07.856Z,97742.06
2023-05-15T17:08:53.123Z,97750.47
2023-05-15T17:11:38.437Z,97724.00
2023-05-15T17:14:23.862Z,97754.88
2023-05-15T17:17:09.023Z,97699.28
2023-05-15T17:19:55.629Z,97764.84
2023-05-15T17:22:41.160Z,97766.38
2023-05-15T17:25:26.553Z,97767.66
2023-05-15T17:28:12.102Z,97767.47
2023-05-15T17:30:57.563Z,97774.41
2023-05-15T17:33:42.885Z,97778.75
2023-05-15T17:36:28.108Z,97770.84
2023-05-15T17:39:13.466Z,97780.19
2023-05-15T17:41:58.706Z,97783.22
2023-05-15T17:44:43.846Z,97788.72
2023-05-15T17:47:29.094Z,97723.94
2023-05-15T17:50:14.409Z,97741.81
2023-05-15T17:53:00.163Z,97800.19
2023-05-15T17:55:45.650Z,97801.81
2023-05-15T17:58:31.009Z,97796.63
2023-05-15T18:01:16.440Z,97806.16
2023-05-15T18:04:01.665Z,97797.06
2023-05-15T18:06:47.082Z,97809.72
2023-05-15T18:09:32.620Z,97807.22
2023-05-15T18:12:17.833Z,97762.22
2023-05-15T18:15:03.354Z,97813.41
2023-05-15T18:17:48.890Z,97768.94
2023-05-15T18:20:34.422Z,97772.41
2023-05-15T18:23:20.214Z,97823.59
2023-05-15T18:26:05.629Z,97828.84
2023-05-15T18:28:51.376Z,97834.91
2023-05-15T18:31:36.744Z,97830.59
2023-05-15T18:34:22.230Z,97841.41
2023-05-15T18:37:07.775Z,97845.94
2023-05-15T18:39:52.994Z,97846.06
2023-05-15T18:42:38.302Z,97856.38
2023-05-15T18:45:24.746Z,97867.03
2023-05-15T18:48:10.642Z,97791.09
2023-05-15T18:50:55.805Z,97826.78
2023-05-15T18:53:41.116Z,97858.47
2023-05-15T18:56:26.856Z,97857.09
2023-05-15T18:59:12.323Z,97863.84
2023-05-15T19:01:57.913Z,97861.94
2023-05-15T19:04:43.034Z,97872.94
2023-05-15T19:07:28.190Z,97872.16
2023-05-15T19:10:13.686Z,97840.13
2023-05-15T19:12:59.201Z,97870.53
2023-05-15T19:15:53.714Z,97872.81
2023-05-15T19:18:39.226Z,97870.53
2023-05-15T19:21:24.629Z,97876.59
2023-05-15T19:24:09.879Z,97878.47
2023-05-15T19:26:55.119Z,97882.34
2023-05-15T19:29:42.743Z,97883.44
2023-05-15T19:32:28.351Z,97887.25
2023-05-15T19:35:14.098Z,97889.63
2023-05-15T19:37:59.586Z,97884.19
2023-05-15T19:40:45.142Z,97881.66
2023-05-15T19:43:30.814Z,97897.16
2023-05-15T19:46:19.588Z,97900.97
2023-05-15T19:49:05.719Z,97901.09
2023-05-15T19:51:50.933Z,97901.66
2023-05-15T19:54:36.003Z,97903.59
2023-05-15T19:57:21.578Z,97912.75
2023-05-15T20:00:07.668Z,97904.78
2023-05-15T20:02:53.070Z,97904.81
2023-05-15T20:05:39.817Z,97906.56
2023-05-15T20:08:25.495Z,97901.66
2023-05-15T20:11:10.924Z,97909.22
2023-05-15T20:13:56.046Z,97910.69
2023-05-15T20:16:41.498Z,97905.13
2023-05-15T20:19:27.584Z,97906.56
2023-05-15T20:22:12.787Z,97902.13
2023-05-15T20:24:58.196Z,97907.09
2023-05-15T20:27:43.365Z,97913.00
2023-05-15T20:30:29.094Z,97906.31
2023-05-15T20:33:14.698Z,97910.34
2023-05-15T20:36:00.378Z,97920.59
2023-05-15T20:38:45.591Z,97926.50
2023-05-15T20:41:31.021Z,97906.16
2023-05-15T20:44:16.550Z,97907.78
2023-05-15T20:47:02.784Z,97909.16
2023-05-15T20:49:48.113Z,97911.16
2023-05-15T20:52:33.583Z,97918.22
2023-05-15T20:55:18.964Z,97820.03
2023-05-15T20:58:04.761Z,97856.50
2023-05-15T21:00:49.909Z,97875.00
2023-05-15T21:03:35.417Z,97911.50
2023-05-15T21:06:21.288Z,97909.75
2023-05-15T21:09:06.448Z,97905.94
2023-05-15T21:11:51.787Z,97898.81
2023-05-15T21:14:36.909Z,97907.16
2023-05-15T21:17:22.255Z,97895.69
2023-05-15T21:20:08.480Z,97853.50
2023-05-15T21:22:53.887Z,97894.00
2023-05-15T21:25:39.279Z,97892.38
2023-05-15T21:28:24.226Z,97891.59
2023-05-15T21:31:10.602Z,97891.50
2023-05-15T21:33:56.013Z,97896.09
2023-05-15T21:36:41.400Z,97896.47
2023-05-15T21:39:26.968Z,97895.94
2023-05-15T21:42:12.406Z,97906.28
2023-05-15T21:44:57.932Z,97913.72
2023-05-15T21:47:43.478Z,97911.50
2023-05-15T21:50:28.982Z,97916.38
2023-05-15T21:53:14.125Z,97910.31
2023-05-15T21:56:03.015Z,97865.34
2023-05-15T21:58:48.233Z,97919.44
2023-05-15T22:01:33.549Z,97920.78
2023-05-15T22:04:18.907Z,97922.16
2023-05-15T22:07:04.735Z,97894.97
2023-05-15T22:09:50.062Z,97920.81
2023-05-15T22:12:35.709Z,97928.69
2023-05-15T22:15:20.991Z,97932.00
2023-05-15T22:18:06.722Z,97927.81
2023-05-15T22:20:52.212Z,97923.72
2023-05-15T22:23:37.305Z,97924.94
2023-05-15T22:26:22.926Z,97851.19
2023-05-15T22:29:08.392Z,97925.06
2023-05-15T22:31:54.065Z,97929.38
2023-05-15T22:34:39.328Z,97918.69
2023-05-15T22:37:24.575Z,97932.06
2023-05-15T22:40:10.598Z,97939.63
2023-05-15T22:42:55.929Z,97945.16
2023-05-15T22:45:41.107Z,97939.91
2023-05-15T22:48:26.720Z,97958.09
2023-05-15T22:51:12.189Z,97964.47
2023-05-15T22:53:57.641Z,97952.34
2023-05-15T22:56:42.876Z,97967.34
2023-05-15T22:59:28.447Z,97971.44
2023-05-15T23:02:13.733Z,97965.31
2023-05-15T23:04:59.000Z,97953.50
2023-05-15T23:07:44.635Z,97959.56
2023-05-15T23:10:30.150Z,97964.81
2023-05-15T23:13:15.306Z,97964.41
2023-05-15T23:16:00.542Z,97960.91
2023-05-15T23:18:46.017Z,97956.25
2023-05-15T23:21:32.368Z,97955.19
2023-05-15T23:24:17.816Z,97957.81
2023-05-15T23:27:03.155Z,97899.75
2023-05-15T23:29:48.510Z,97952.13
2023-05-15T23:32:34.272Z,97937.41
2023-05-15T23:35:19.621Z,97952.63
2023-05-15T23:38:05.118Z,97938.09
2023-05-15T23:40:50.369Z,97903.22
2023-05-15T23:43:35.772Z,97950.31
2023-05-15T23:46:21.112Z,97936.16
2023-05-15T23:49:06.821Z,97970.06
2023-05-15T23:51:51.953Z,97969.47
2023-05-15T23:54:37.746Z,97965.78
2023-05-15T23:57:23.200Z,97965.34
